Rechercher aéroport 
image banner adimage banner ad
image banner ad

EVSM - Lielvarde M Sola

Situé à Lielvarde, Latvia

ICAO - , IATA -

Données fournies par Airmate  

Information générale

Coordonnées: N56°39'59" E24°54'11"
Élévation : 142 feet MSL.
Variation magnétique : 7° East
Voir autres Aéroports à Ogre District

Données opérationnelles

Accessible au public
Heure actuelle UTC:
Heure actuelle locale:
Météo à : EVRA - Riga ( 64 km )
METAR: EVRA 262150Z 16013KT 9999 OVC009 12/10 Q1009 R18/290195 NOSIG
TAF: TAF EVRA 262000Z 2621/2721 16010KT 9999 BKN015 TEMPO 2621/2623 BKN009
Voir NOTAMs / SUP AIP / TFR affectant cet aéroport [VIEW]
Fréquences de communication: [VIEW]

Pistes:

Coordonnées de l'aéroport

Adresse: Lielvarde Latvia

Vue satellite de EVSM